Eden Mills, Vermont
Current Conditions -  °F | °C
As of 1:54 AM on Friday 31 Oct 2014 (Local Time) from KMVL Reporting Station
Overcast Overcast  
Wind Chill: 40°   Ceiling: 4600
Heat Index: 40°   Visibility: 10mi
Dew Point: 32°   Wind: 0mph
Humidity: 73%   Direction: NA
Pressure: 30.02"   Gusts: NA
Location:  44.71°N, 72.55°W
Report Text: KMVL 310554Z AUTO 00000KT 10SM OVC046 04/00 A3002 RMK AO2 SLP172 T00440000 10061 20044 53002
Loading
Personal Weather Stations






























Interactive Weather Map
Tropical Storm Tracking
New forecast layout! Learn more

10-Day Weather Forecast

Advertisements
Track Severe Weather on mobile